createdAt,value
2022-09-15T00:02:49.308Z,97.09
2022-09-15T00:07:57.805Z,96.89
2022-09-15T00:13:06.247Z,96.7
2022-09-15T00:18:14.014Z,96.64001
2022-09-15T00:23:22.425Z,96.50001
2022-09-15T00:28:30.552Z,96.4
2022-09-15T00:33:38.487Z,96.28
2022-09-15T00:38:46.522Z,96.15001
2022-09-15T00:43:53.876Z,96.17
2022-09-15T00:49:00.348Z,96.22001
2022-09-15T00:54:06.942Z,96.1
2022-09-15T00:59:14.774Z,96.06
2022-09-15T01:04:22.032Z,96.08001
2022-09-15T01:09:30.544Z,96.01001
2022-09-15T01:14:38.230Z,96.11
2022-09-15T01:19:45.032Z,96.34
2022-09-15T01:24:52.700Z,96.35
2022-09-15T01:30:01.301Z,96.58
2022-09-15T01:35:10.630Z,96.66
2022-09-15T01:40:18.629Z,96.48001
2022-09-15T01:45:26.837Z,96.54
2022-09-15T01:50:34.849Z,96.67
2022-09-15T01:55:42.579Z,96.56
2022-09-15T02:00:50.339Z,96.36001
2022-09-15T02:05:58.019Z,96.27
2022-09-15T02:11:05.435Z,96.35
2022-09-15T02:17:43.944Z,96.44
2022-09-15T02:22:50.514Z,96.38
2022-09-15T02:27:57.293Z,96.46
2022-09-15T02:33:04.289Z,96.58
2022-09-15T02:38:11.861Z,96.56
2022-09-15T02:43:19.439Z,96.58
2022-09-15T02:48:26.490Z,96.55001
2022-09-15T02:53:34.528Z,96.78
2022-09-15T02:58:42.345Z,96.53
2022-09-15T03:03:49.397Z,96.21
2022-09-15T03:08:57.989Z,96.13
2022-09-15T03:14:05.160Z,96.02
2022-09-15T03:19:12.947Z,96.2
2022-09-15T03:24:20.139Z,96.14
2022-09-15T03:29:27.989Z,96.18
2022-09-15T03:34:35.943Z,96.19
2022-09-15T03:39:43.834Z,96.31
2022-09-15T03:44:52.416Z,96.35
2022-09-15T03:49:59.941Z,96.16
2022-09-15T03:55:07.339Z,96.08001
2022-09-15T04:00:13.763Z,96.15001
2022-09-15T04:05:22.090Z,96.04
2022-09-15T04:10:30.489Z,95.9
2022-09-15T04:15:43.062Z,95.92
2022-09-15T04:20:50.911Z,95.99
2022-09-15T04:25:58.209Z,96.01001
2022-09-15T04:31:06.521Z,95.99
2022-09-15T04:36:13.702Z,95.91001
2022-09-15T04:41:21.148Z,95.88
2022-09-15T04:46:28.694Z,95.84
2022-09-15T04:51:36.548Z,95.80001
2022-09-15T04:56:44.913Z,95.82
2022-09-15T05:01:52.502Z,95.67
2022-09-15T05:07:00.776Z,95.68
2022-09-15T05:12:09.168Z,95.68
2022-09-15T05:17:16.380Z,95.55
2022-09-15T05:22:24.253Z,95.42
2022-09-15T05:27:32.598Z,95.33
2022-09-15T05:32:40.281Z,95.09
2022-09-15T05:37:48.070Z,94.77
2022-09-15T05:42:55.924Z,94.78
2022-09-15T05:48:03.443Z,94.45
2022-09-15T05:53:10.007Z,94.29
2022-09-15T05:58:18.316Z,94.03
2022-09-15T06:03:25.698Z,93.46
2022-09-15T06:08:33.574Z,93.84
2022-09-15T06:13:42.556Z,93.94
2022-09-15T06:18:50.232Z,94.57
2022-09-15T06:23:58.312Z,94.35
2022-09-15T06:29:07.356Z,93.78
2022-09-15T06:34:14.618Z,93.34
2022-09-15T06:39:23.502Z,93.43
2022-09-15T06:44:30.995Z,93.06
2022-09-15T06:49:38.170Z,93.30001
2022-09-15T06:54:46.202Z,91.93
2022-09-15T06:59:54.258Z,92.06
2022-09-15T07:05:01.654Z,92.2
2022-09-15T07:10:09.471Z,92.07
2022-09-15T07:15:16.882Z,92.7
2022-09-15T07:20:24.173Z,90.62
2022-09-15T07:25:32.263Z,83.13
2022-09-15T07:30:40.219Z,80.74
2022-09-15T07:35:47.802Z,80.98001
2022-09-15T07:40:55.859Z,78.48001
2022-09-15T07:46:04.162Z,78.73001
2022-09-15T07:51:11.914Z,77.59
2022-09-15T07:56:19.875Z,72.24
2022-09-15T08:01:29.466Z,66.69
2022-09-15T08:06:36.414Z,68.12
2022-09-15T08:11:43.844Z,65.88
2022-09-15T08:16:51.053Z,64.91001
2022-09-15T08:21:57.913Z,68.76
2022-09-15T08:27:05.275Z,69.52
2022-09-15T08:32:13.692Z,70.1
2022-09-15T08:37:21.281Z,70.71
2022-09-15T08:42:29.037Z,69.62
2022-09-15T08:47:37.223Z,69.11
2022-09-15T08:52:45.290Z,70.52
2022-09-15T08:57:54.245Z,70.57
2022-09-15T09:03:00.741Z,70.24
2022-09-15T09:08:07.941Z,71.4
2022-09-15T09:13:16.141Z,71.45
2022-09-15T09:18:23.668Z,71.26
2022-09-15T09:23:31.420Z,71.93
2022-09-15T09:28:38.914Z,72.28
2022-09-15T09:33:46.494Z,72.56
2022-09-15T09:38:53.059Z,73.52
2022-09-15T09:44:00.903Z,75.78
2022-09-15T09:49:08.609Z,77.64
2022-09-15T09:54:15.291Z,79.11
2022-09-15T09:59:22.344Z,82.25
2022-09-15T10:04:31.567Z,85.95
2022-09-15T10:09:40.330Z,87.69
2022-09-15T10:14:47.346Z,86.71
2022-09-15T10:19:55.233Z,86.55001
2022-09-15T10:25:02.612Z,86.6
2022-09-15T10:30:09.734Z,86.63
2022-09-15T10:35:17.385Z,86.05
2022-09-15T10:40:26.331Z,86.88
2022-09-15T10:45:33.461Z,86.44
2022-09-15T10:50:41.438Z,85.06
2022-09-15T10:55:49.980Z,83.59
2022-09-15T11:00:58.800Z,82.58
2022-09-15T11:06:05.734Z,82.1
2022-09-15T11:11:12.624Z,81.68
2022-09-15T11:16:21.262Z,81.48001
2022-09-15T11:21:27.938Z,80.16001
2022-09-15T11:26:36.737Z,79.7
2022-09-15T11:31:44.561Z,79.31
2022-09-15T11:36:51.526Z,79.37
2022-09-15T11:41:59.774Z,79.15
2022-09-15T11:47:07.187Z,77.99
2022-09-15T11:52:15.242Z,77.85
2022-09-15T11:57:21.610Z,77.55001
2022-09-15T12:02:30.054Z,77.7
2022-09-15T12:07:37.495Z,77.06
2022-09-15T12:12:45.658Z,78.68
2022-09-15T12:17:53.968Z,77.53
2022-09-15T12:23:00.739Z,76.86
2022-09-15T12:28:09.210Z,76.67
2022-09-15T12:33:17.011Z,76.53
2022-09-15T12:38:25.416Z,75.67
2022-09-15T12:43:33.380Z,75.42
2022-09-15T12:48:41.002Z,74.58
2022-09-15T12:53:47.779Z,74.38
2022-09-15T12:58:55.201Z,74.68
2022-09-15T13:04:02.821Z,74.05
2022-09-15T13:09:10.660Z,73.80001
2022-09-15T13:14:18.417Z,73.02
2022-09-15T13:19:26.331Z,73.12
2022-09-15T13:24:34.547Z,72.16001
2022-09-15T13:29:41.426Z,72.09
2022-09-15T13:34:48.652Z,71.36
2022-09-15T13:39:56.188Z,71.6
2022-09-15T13:45:04.122Z,71.06
2022-09-15T13:50:11.482Z,69.8
2022-09-15T13:55:19.011Z,69.3
2022-09-15T14:00:26.493Z,68.65
2022-09-15T14:05:35.493Z,69.34
2022-09-15T14:10:42.301Z,70.1
2022-09-15T14:15:50.212Z,69.86
2022-09-15T14:20:57.862Z,70.43
2022-09-15T14:26:05.457Z,80.80001
2022-09-15T14:31:12.475Z,81.57001
2022-09-15T14:36:18.793Z,83.88
2022-09-15T14:41:26.644Z,82.9
2022-09-15T14:46:33.841Z,83.39
2022-09-15T14:51:41.024Z,86.42
2022-09-15T14:56:50.283Z,83.4
2022-09-15T15:01:58.028Z,82.26001
2022-09-15T15:07:05.866Z,82.55
2022-09-15T15:12:14.938Z,82.1
2022-09-15T15:17:22.489Z,81.05
2022-09-15T15:22:32.447Z,79.52
2022-09-15T15:27:41.061Z,78.18
2022-09-15T15:32:48.776Z,78.17
2022-09-15T15:37:56.110Z,78.46
2022-09-15T15:43:03.987Z,79.08
2022-09-15T15:48:11.885Z,79.41
2022-09-15T15:53:20.190Z,79.45
2022-09-15T15:58:27.523Z,79.83
2022-09-15T16:03:34.766Z,81.03
2022-09-15T16:08:42.775Z,81.35
2022-09-15T16:13:50.342Z,81.62001
2022-09-15T16:18:58.691Z,82.18
2022-09-15T16:24:06.571Z,82.9
2022-09-15T16:29:14.302Z,83.6
2022-09-15T16:34:21.890Z,84.56
2022-09-15T16:39:30.712Z,85.62
2022-09-15T16:44:38.025Z,86.12
2022-09-15T16:49:45.790Z,86.46
2022-09-15T16:54:53.095Z,87.18
2022-09-15T17:00:01.410Z,87.3
2022-09-15T17:05:08.748Z,88.2
2022-09-15T17:10:16.729Z,88.68
2022-09-15T17:15:23.119Z,88.8
2022-09-15T17:20:31.026Z,89.45
2022-09-15T17:25:38.226Z,90.14
2022-09-15T17:30:45.440Z,90.61
2022-09-15T17:35:53.264Z,90.87001
2022-09-15T17:41:00.308Z,91.16
2022-09-15T17:46:07.892Z,91.46
2022-09-15T17:51:14.871Z,91.78
2022-09-15T17:56:23.174Z,91.87
2022-09-15T18:01:29.890Z,92.26001
2022-09-15T18:06:37.701Z,92.52
2022-09-15T18:11:50.663Z,92.38
2022-09-15T18:16:57.223Z,92.23001
2022-09-15T18:22:05.088Z,92.17
2022-09-15T18:27:12.206Z,92.33001
2022-09-15T18:32:19.392Z,92.76999
2022-09-15T18:37:27.746Z,92.88
2022-09-15T18:42:35.148Z,93.02
2022-09-15T18:47:43.339Z,93.37001
2022-09-15T18:52:57.041Z,93.66
2022-09-15T18:58:03.828Z,93.92
2022-09-15T19:03:10.940Z,94.01999
2022-09-15T19:08:18.864Z,93.78
2022-09-15T19:13:26.655Z,93.52
2022-09-15T19:18:34.034Z,93.44001
2022-09-15T19:23:41.699Z,93.30001
2022-09-15T19:28:49.902Z,92.83999
2022-09-15T19:33:56.054Z,92.34
2022-09-15T19:39:03.938Z,92.07
2022-09-15T19:44:11.711Z,91.90001
2022-09-15T19:49:20.247Z,91.58
2022-09-15T19:54:42.760Z,91.63
2022-09-15T19:59:50.332Z,93.9
2022-09-15T20:04:58.972Z,94.7
2022-09-15T20:10:07.609Z,95.16001
2022-09-15T20:15:15.029Z,95.30001
2022-09-15T20:20:22.000Z,95.18001
2022-09-15T20:25:30.309Z,95.26
2022-09-15T20:30:38.247Z,95.24
2022-09-15T20:35:44.882Z,95.23001
2022-09-15T20:40:52.936Z,95.33999
2022-09-15T20:45:59.924Z,95.25001
2022-09-15T20:51:07.457Z,95.39001
2022-09-15T20:56:15.546Z,95.41
2022-09-15T21:01:22.792Z,94.98
2022-09-15T21:06:31.013Z,94.88
2022-09-15T21:11:42.730Z,94.98
2022-09-15T21:16:50.760Z,94.92
2022-09-15T21:21:57.377Z,94.82
2022-09-15T21:27:04.599Z,95.06
2022-09-15T21:32:12.424Z,95.18001
2022-09-15T21:37:19.942Z,95.14
2022-09-15T21:42:42.493Z,95.16001
2022-09-15T21:43:09.985Z,95.16001
2022-09-15T21:48:11.993Z,95.24
2022-09-15T21:48:31.141Z,95.24
2022-09-15T21:53:30.746Z,95.38
2022-09-15T21:58:38.980Z,95.44001
2022-09-15T22:03:46.610Z,95.65001
2022-09-15T22:08:53.891Z,95.96
2022-09-15T22:14:01.212Z,95.88
2022-09-15T22:19:10.242Z,95.86
2022-09-15T22:24:17.504Z,95.37001
2022-09-15T22:29:24.713Z,95.63
2022-09-15T22:34:33.752Z,95.93
2022-09-15T22:39:42.292Z,95.96
2022-09-15T22:44:51.331Z,95.81
2022-09-15T22:49:57.996Z,95.59
2022-09-15T22:55:06.087Z,95.57
2022-09-15T23:00:13.692Z,95.56
2022-09-15T23:05:21.951Z,95.93
2022-09-15T23:10:28.763Z,95.94001
2022-09-15T23:15:36.589Z,96.04
2022-09-15T23:20:44.756Z,96.02
2022-09-15T23:25:54.050Z,96.22001
2022-09-15T23:31:00.693Z,96.19
2022-09-15T23:36:07.932Z,96.06
2022-09-15T23:41:15.164Z,96.26
2022-09-15T23:46:23.719Z,96.31
2022-09-15T23:51:31.744Z,96.39
2022-09-15T23:56:40.018Z,96.44
